Steuben, Wisconsin
Current Conditions -  °F | °C
As of 3:53 PM on Saturday 25 Oct 2014 (Local Time) from KOVS Reporting Station
Clear Clear  
Wind Chill: 69°   Ceiling: Unl
Heat Index: 69°   Visibility: 10mi
Dew Point: 27°   Wind: 15mph
Humidity: 21%   Direction: 270°W
Pressure: 29.99"   Gusts: 23mph
Location:  43.18°N, 90.86°W
Report Text: KOVS 252053Z AUTO 27013G20KT 10SM CLR 21/M03 A2999 RMK AO2 SLP155 T02061028 55006
Loading
Personal Weather Stations






























Interactive Weather Map
Tropical Storm Tracking
New forecast layout! Learn more

10-Day Weather Forecast

Advertisements
Track Severe Weather on mobile